Time;durP1;ratioP1;P1;durP2;ratioP2;P2;SDS_P1;SDS_P2;PMS_P1;PMS_P2;Temp;Humidity;BMP_temperature;BMP_pressure;BME280_temperature;BME280_humidity;BME280_pressure;Samples;Min_cycle;Max_cycle;Signal;HPM_P1;HPM_P2
2022/07/06 00:00:30;;;;;;;6.55;5.20;;;;;;;28.14;100.00;99329.76;1728314;81;21059;-74
2022/07/06 00:03:02;;;;;;;7.42;5.37;;;;;;;28.13;100.00;99328.16;1735107;82;21006;-72
2022/07/06 00:05:30;;;;;;;12.88;5.58;;;;;;;28.17;100.00;99323.81;1733734;82;21534;-73
2022/07/06 00:07:57;;;;;;;8.73;5.55;;;;;;;28.16;100.00;99328.70;1732463;81;21804;-73
2022/07/06 00:10:25;;;;;;;7.90;5.97;;;;;;;28.14;100.00;99325.52;1721268;82;20968;-74
2022/07/06 00:12:52;;;;;;;7.08;5.80;;;;;;;28.13;100.00;99323.13;1729292;82;21032;-72
2022/07/06 00:15:21;;;;;;;7.10;5.53;;;;;;;28.12;100.00;99322.94;1736450;81;21094;-73
2022/07/06 00:17:57;;;;;;;8.00;5.87;;;;;;;28.13;100.00;99317.47;1735309;82;20994;-73
2022/07/06 00:20:24;;;;;;;8.43;6.25;;;;;;;28.01;100.00;99320.42;1730615;82;21884;-75
2022/07/06 00:22:52;;;;;;;10.63;5.45;;;;;;;27.95;100.00;99319.55;1733471;82;21008;-74
2022/07/06 00:25:34;;;;;;;9.48;5.60;;;;;;;28.02;100.00;99320.58;1730862;82;21107;-74
2022/07/06 00:28:12;;;;;;;10.48;5.33;;;;;;;28.03;100.00;99313.06;1724058;82;21019;-74
2022/07/06 00:30:39;;;;;;;7.40;5.70;;;;;;;27.97;100.00;99310.61;1728082;82;21019;-74
2022/07/06 00:33:06;;;;;;;8.35;6.37;;;;;;;27.99;100.00;99320.06;1731278;82;21222;-74
2022/07/06 00:35:35;;;;;;;6.35;5.37;;;;;;;28.01;100.00;99317.59;1730785;81;21519;-72
2022/07/06 00:38:13;;;;;;;6.67;5.10;;;;;;;27.98;100.00;99318.48;1734896;82;21034;-73
2022/07/06 00:40:40;;;;;;;11.30;5.95;;;;;;;28.01;100.00;99321.19;1701602;83;21499;-73
2022/07/06 00:43:08;;;;;;;6.70;5.53;;;;;;;27.94;100.00;99320.77;1727804;82;21045;-73
2022/07/06 00:45:35;;;;;;;10.05;6.08;;;;;;;27.96;100.00;99324.59;1738449;81;21545;-73
2022/07/06 00:48:03;;;;;;;6.95;5.95;;;;;;;28.03;100.00;99320.77;1731677;82;21049;-74
2022/07/06 00:50:44;;;;;;;9.05;5.53;;;;;;;27.95;100.00;99312.47;1731616;82;20960;-73
2022/07/06 00:53:14;;;;;;;8.85;5.37;;;;;;;27.95;100.00;99311.05;1710401;81;21047;-73
2022/07/06 00:55:42;;;;;;;7.85;5.60;;;;;;;27.89;100.00;99313.46;1773212;80;20949;-72
2022/07/06 00:58:09;;;;;;;10.25;5.55;;;;;;;27.91;100.00;99311.76;1773299;81;21204;-73
2022/07/06 01:00:36;;;;;;;7.17;5.95;;;;;;;27.92;100.00;99313.37;1773099;80;20957;-74
2022/07/06 01:03:03;;;;;;;8.18;6.00;;;;;;;27.87;100.00;99312.49;1773210;80;21633;-73
2022/07/06 01:05:42;;;;;;;8.28;5.70;;;;;;;27.87;100.00;99311.69;1768249;81;20929;-72
2022/07/06 01:08:17;;;;;;;10.32;5.50;;;;;;;27.91;100.00;99308.93;1766632;81;21024;-74
2022/07/06 01:10:44;;;;;;;7.70;6.20;;;;;;;27.92;100.00;99310.54;1701946;81;21775;-73
2022/07/06 01:13:25;;;;;;;8.68;5.67;;;;;;;27.90;100.00;99306.55;1770040;81;21535;-73
2022/07/06 01:15:54;;;;;;;6.20;5.20;;;;;;;27.90;100.00;99312.20;1773172;80;20989;-74
2022/07/06 01:18:23;;;;;;;7.30;5.58;;;;;;;27.89;100.00;99307.80;1773248;80;21094;-74
2022/07/06 01:20:49;;;;;;;7.67;5.40;;;;;;;27.86;100.00;99311.52;1773255;81;20997;-73
2022/07/06 01:23:25;;;;;;;18.92;6.15;;;;;;;27.82;100.00;99300.30;1773263;81;21044;-73
2022/07/06 01:28:58;;;;;;;9.60;6.20;;;;;;;27.83;100.00;99308.95;1639813;87;21084;-72
2022/07/06 01:31:25;;;;;;;6.50;5.72;;;;;;;27.85;100.00;99306.48;1639534;86;21028;-74
2022/07/06 01:33:57;;;;;;;7.85;5.33;;;;;;;27.86;100.00;99305.22;1639543;87;21005;-73
2022/07/06 01:36:25;;;;;;;6.90;5.60;;;;;;;27.87;100.00;99305.42;1639585;87;21485;-73
2022/07/06 01:38:57;;;;;;;10.98;5.78;;;;;;;27.87;100.00;99298.34;1639891;87;20973;-72
2022/07/06 01:41:33;;;;;;;7.70;5.80;;;;;;;27.86;100.00;99291.72;1639485;87;21579;-73
2022/07/06 01:44:04;;;;;;;7.55;6.10;;;;;;;27.83;100.00;99294.19;1639816;87;21068;-72
2022/07/06 01:46:31;;;;;;;6.45;5.70;;;;;;;27.83;100.00;99293.39;1639448;87;21005;-74
2022/07/06 01:48:59;;;;;;;6.85;6.08;;;;;;;27.80;100.00;99291.45;1632671;85;21100;-73
2022/07/06 01:51:29;;;;;;;6.95;5.30;;;;;;;27.84;100.00;99296.41;1619756;87;21520;-75
2022/07/06 01:54:02;;;;;;;8.83;5.78;;;;;;;27.85;100.00;99300.81;1625280;87;21492;-72
2022/07/06 01:56:38;;;;;;;10.23;5.75;;;;;;;27.87;100.00;99298.34;1622819;87;21008;-74
2022/07/06 01:59:07;;;;;;;6.00;5.40;;;;;;;27.87;100.00;99301.78;1618743;87;21068;-74
2022/07/06 02:01:36;;;;;;;7.90;5.60;;;;;;;27.90;100.00;99295.23;1637287;85;21601;-75
2022/07/06 02:04:07;;;;;;;9.85;5.30;;;;;;;27.75;100.00;99299.87;1644156;85;20984;-74
2022/07/06 02:06:55;;;;;;;9.98;5.60;;;;;;;27.73;100.00;99297.30;1657098;85;20972;-75
2022/07/06 02:09:27;;;;;;;13.48;5.33;;;;;;;27.72;100.00;99297.13;1656986;85;21031;-73
2022/07/06 02:11:56;;;;;;;7.37;5.30;;;;;;;27.84;100.00;99292.16;1646428;85;21486;-74
2022/07/06 02:14:35;;;;;;;10.30;5.58;;;;;;;27.72;100.00;99294.30;1646671;85;20995;-74
2022/07/06 02:17:02;;;;;;;7.75;4.83;;;;;;;27.72;100.00;99290.86;1618718;87;21105;-74
2022/07/06 02:19:55;;;;;;;10.78;4.90;;;;;;;27.74;100.00;99284.11;1638873;86;21522;-73
2022/07/06 02:22:25;;;;;;;8.45;5.15;;;;;;;27.73;100.00;99283.15;1654058;85;21074;-73
2022/07/06 02:24:51;;;;;;;8.08;4.75;;;;;;;27.75;100.00;99286.33;1653168;86;21661;-74
2022/07/06 02:27:19;;;;;;;8.93;5.78;;;;;;;27.73;100.00;99285.36;1651941;85;21518;-74
2022/07/06 02:29:46;;;;;;;6.17;4.97;;;;;;;27.80;100.00;99287.20;1670297;83;21518;-74
2022/07/06 02:32:13;;;;;;;6.37;4.85;;;;;;;27.82;100.00;99286.15;1671648;83;21570;-72
2022/07/06 02:34:41;;;;;;;7.67;4.62;;;;;;;27.82;100.00;99281.91;1649260;85;21011;-74
2022/07/06 02:37:12;;;;;;;12.58;5.25;;;;;;;27.80;100.00;99283.77;1675631;84;21073;-74
2022/07/06 02:39:39;;;;;;;7.97;5.25;;;;;;;27.80;100.00;99285.19;1654949;85;21243;-74
2022/07/06 02:42:08;;;;;;;14.75;5.10;;;;;;;27.76;100.00;99287.30;1668385;84;21055;-74
2022/07/06 02:44:38;;;;;;;10.63;4.70;;;;;;;27.81;100.00;99283.13;1673145;84;21015;-73
2022/07/06 02:47:06;;;;;;;6.08;5.30;;;;;;;27.85;100.00;99284.45;1671527;84;21575;-74
2022/07/06 02:49:36;;;;;;;7.80;4.55;;;;;;;27.87;100.00;99280.56;1673571;84;21010;-73
2022/07/06 02:52:10;;;;;;;10.95;5.90;;;;;;;27.89;100.00;99281.72;1682244;84;21498;-72
2022/07/06 02:54:37;;;;;;;8.10;4.35;;;;;;;27.89;100.00;99285.16;1673919;84;21022;-75
2022/07/06 02:57:24;;;;;;;8.45;4.67;;;;;;;27.88;100.00;99281.53;1671335;84;20939;-74
2022/07/06 02:59:54;;;;;;;9.60;5.08;;;;;;;27.91;100.00;99282.69;1669984;85;21019;-75
2022/07/06 03:02:23;;;;;;;6.97;4.70;;;;;;;27.90;100.00;99282.49;1670281;85;20943;-72
2022/07/06 03:04:52;;;;;;;8.78;4.75;;;;;;;27.89;100.00;99280.91;1675247;83;21152;-72
2022/07/06 03:07:20;;;;;;;8.25;5.05;;;;;;;27.88;100.00;99282.94;1672040;85;20942;-75
2022/07/06 03:09:49;;;;;;;8.33;4.90;;;;;;;27.90;100.00;99281.88;1641386;84;21038;-72
2022/07/06 03:12:19;;;;;;;9.20;4.83;;;;;;;27.90;100.00;99281.08;1663892;84;21063;-73
2022/07/06 03:14:48;;;;;;;8.30;4.80;;;;;;;27.87;100.00;99279.95;1675490;84;21023;-72
2022/07/06 03:17:17;;;;;;;7.80;4.85;;;;;;;27.88;100.00;99274.45;1671249;84;21010;-73
2022/07/06 03:19:47;;;;;;;6.30;4.97;;;;;;;27.91;100.00;99279.21;1670946;84;22284;-76
2022/07/06 03:22:15;;;;;;;5.05;4.50;;;;;;;27.92;100.00;99280.82;1672759;84;21046;-74
2022/07/06 03:24:47;;;;;;;8.30;4.62;;;;;;;27.94;100.00;99276.91;1685822;84;21175;-74
2022/07/06 03:27:15;;;;;;;5.67;4.62;;;;;;;27.97;100.00;99284.33;1673959;84;21532;-73
2022/07/06 03:29:42;;;;;;;6.97;4.80;;;;;;;27.99;100.00;99286.10;1670328;85;21910;-73
2022/07/06 03:32:20;;;;;;;6.62;4.65;;;;;;;28.09;100.00;99285.01;1648873;84;21050;-73
2022/07/06 03:34:51;;;;;;;7.45;4.08;;;;;;;28.11;100.00;99286.78;1669559;85;21066;-71
2022/07/06 03:37:20;;;;;;;6.37;4.62;;;;;;;28.15;99.29;99282.44;1671585;84;21118;-73
2022/07/06 03:39:56;;;;;;;7.62;4.75;;;;;;;28.10;98.73;99285.17;1670271;85;21065;-71
2022/07/06 03:42:31;;;;;;;9.90;4.35;;;;;;;28.15;97.80;99287.45;1671177;84;21210;-73
2022/07/06 03:45:07;;;;;;;6.55;4.62;;;;;;;28.10;97.03;99284.39;1683921;84;21030;-72
2022/07/06 03:47:52;;;;;;;5.47;4.50;;;;;;;28.16;96.79;99289.06;1667938;83;21031;-74
2022/07/06 03:50:24;;;;;;;5.33;4.67;;;;;;;28.18;96.68;99289.39;1650283;85;21030;-75
2022/07/06 03:53:09;;;;;;;10.55;4.25;;;;;;;28.33;96.60;99283.94;1681204;84;21523;-74
2022/07/06 03:55:39;;;;;;;4.80;4.28;;;;;;;28.34;96.27;99279.27;1670663;84;21285;-75
2022/07/06 03:58:11;;;;;;;18.35;5.00;;;;;;;28.40;96.53;99286.60;1670107;85;21007;-74
2022/07/06 04:00:39;;;;;;;8.70;4.83;;;;;;;28.45;95.63;99280.99;1670093;85;20955;-74
2022/07/06 04:03:08;;;;;;;8.25;4.72;;;;;;;28.50;95.29;99281.86;1669631;84;21499;-74
2022/07/06 04:05:37;;;;;;;7.55;4.47;;;;;;;28.52;95.29;99280.79;1667536;84;21030;-74
2022/07/06 04:08:07;;;;;;;6.87;4.47;;;;;;;28.54;95.54;99277.66;1674217;84;21234;-72
2022/07/06 04:10:38;;;;;;;6.67;4.30;;;;;;;28.59;94.75;99276.33;1673001;83;21459;-73
2022/07/06 04:13:11;;;;;;;9.85;5.15;;;;;;;28.63;93.64;99273.37;1649245;84;21076;-73
2022/07/06 04:15:45;;;;;;;5.78;3.83;;;;;;;28.70;93.06;99273.77;1670619;84;21086;-75
2022/07/06 04:18:27;;;;;;;5.97;4.17;;;;;;;28.72;92.97;99266.42;1666187;85;20987;-74
2022/07/06 04:20:57;;;;;;;;;;;;;;;28.66;94.13;99263.34;1652773;84;21115;-74
2022/07/06 04:23:25;;;;;;;6.70;4.45;;;;;;;28.73;93.16;99260.91;1681420;84;20206;-73
2022/07/06 04:25:52;;;;;;;12.30;4.45;;;;;;;28.91;92.25;99263.81;1675322;84;21546;-73
2022/07/06 04:28:46;;;;;;;6.03;4.60;;;;;;;28.89;92.94;99263.47;1672595;83;21076;-74
2022/07/06 04:31:24;;;;;;;6.90;4.75;;;;;;;28.98;92.69;99262.82;1680601;83;21085;-72
2022/07/06 04:33:51;;;;;;;8.23;4.72;;;;;;;29.01;92.99;99255.63;1682942;83;21889;-74
2022/07/06 04:39:05;;;;;;;4.92;4.03;;;;;;;29.06;92.22;99261.34;1680997;83;21010;-73
2022/07/06 04:41:34;;;;;;;7.75;4.58;;;;;;;29.11;92.36;99262.19;1677418;83;21022;-74
2022/07/06 04:44:04;;;;;;;4.95;4.42;;;;;;;29.13;91.60;99256.86;1667165;83;21076;-72
2022/07/06 04:46:33;;;;;;;4.87;4.28;;;;;;;29.16;92.95;99255.94;1657284;86;21121;-74
2022/07/06 04:49:17;;;;;;;6.28;3.87;;;;;;;29.32;91.78;99256.25;1633036;87;21430;-74
2022/07/06 04:51:50;;;;;;;9.98;5.03;;;;;;;29.43;93.59;99248.81;1637929;86;21036;-73
2022/07/06 04:54:18;;;;;;;11.57;4.87;;;;;;;29.45;93.73;99247.09;1656634;85;21025;-73
2022/07/06 04:56:47;;;;;;;14.60;5.05;;;;;;;29.48;93.73;99246.16;1613081;86;21050;-74
2022/07/06 04:59:18;;;;;;;11.12;4.30;;;;;;;29.62;92.85;99244.91;1652943;85;21879;-74
2022/07/06 05:01:47;;;;;;;5.28;3.80;;;;;;;29.69;91.70;99241.64;1658612;85;21529;-74
2022/07/06 05:04:24;;;;;;;8.03;4.33;;;;;;;29.74;90.89;99239.02;1643261;86;20961;-75
2022/07/06 05:07:03;;;;;;;7.33;4.08;;;;;;;29.80;90.74;99243.48;1630217;88;21012;-74
2022/07/06 05:09:30;;;;;;;6.28;4.35;;;;;;;29.87;90.49;99242.44;1644284;86;21007;-73
2022/07/06 05:12:07;;;;;;;8.25;4.28;;;;;;;29.95;88.12;99237.28;1631140;85;21137;-74
2022/07/06 05:14:34;;;;;;;5.90;4.08;;;;;;;29.94;88.27;99234.28;1655586;84;21418;-74
2022/07/06 05:17:06;;;;;;;7.83;4.53;;;;;;;29.97;90.21;99240.45;1656140;85;21088;-72
2022/07/06 05:19:37;;;;;;;5.78;3.95;;;;;;;30.02;89.31;99245.54;1660770;85;21064;-72
2022/07/06 05:22:08;;;;;;;8.40;4.30;;;;;;;30.05;88.27;99244.61;1659993;85;21110;-72
2022/07/06 05:24:38;;;;;;;5.87;4.40;;;;;;;30.24;88.79;99248.41;1664224;85;21392;-73
2022/07/06 05:27:05;;;;;;;7.15;4.15;;;;;;;30.32;88.83;99241.81;1634501;85;21771;-73
2022/07/06 05:32:32;;;;;;;8.68;4.50;;;;;;;30.44;89.38;99234.45;1634948;87;21096;-75
2022/07/06 05:35:09;;;;;;;7.92;4.17;;;;;;;30.51;90.63;99236.84;1639021;86;21069;-74
2022/07/06 05:37:38;;;;;;;6.22;4.50;;;;;;;30.58;87.33;99253.00;1637821;87;21321;-74
2022/07/06 05:40:21;;;;;;;7.03;4.47;;;;;;;30.63;85.74;99262.16;1610470;87;21406;-74
2022/07/06 05:42:48;;;;;;;9.40;4.05;;;;;;;30.53;87.13;99250.77;1636957;86;21029;-75
2022/07/06 05:45:17;;;;;;;7.67;4.85;;;;;;;30.58;88.19;99243.06;1636769;87;21010;-74
2022/07/06 05:50:34;;;;;;;6.12;4.87;;;;;;;30.66;88.56;99241.36;1622728;86;21898;-67
2022/07/06 05:53:10;;;;;;;6.85;5.08;;;;;;;30.69;91.14;99237.58;1633924;86;21555;-72
2022/07/06 05:55:39;;;;;;;5.47;4.25;;;;;;;30.71;92.77;99236.46;1631782;87;21071;-75
2022/07/06 05:58:06;;;;;;;5.85;5.12;;;;;;;30.65;91.83;99234.88;1639727;86;21135;-75
2022/07/06 06:00:35;;;;;;;6.12;4.22;;;;;;;30.68;91.57;99227.45;1637333;86;21543;-73
2022/07/06 06:03:07;;;;;;;4.35;3.67;;;;;;;30.76;92.17;99220.88;1627996;86;21131;-72
2022/07/06 06:05:35;;;;;;;4.97;3.95;;;;;;;30.84;89.17;99208.74;1637312;86;21100;-72
2022/07/06 06:08:15;;;;;;;10.15;4.00;;;;;;;30.87;88.45;99210.50;1637127;86;21104;-71
2022/07/06 06:10:42;;;;;;;3.92;3.20;;;;;;;30.90;89.62;99220.92;1647800;86;21077;-72
2022/07/06 06:13:15;;;;;;;;;;;;;;;30.96;86.73;99216.99;1647277;86;21074;-70
2022/07/06 06:15:44;;;;;;;7.95;3.52;;;;;;;31.00;84.76;99213.23;1638430;86;21255;-72
2022/07/06 06:18:21;;;;;;;5.67;3.60;;;;;;;31.02;83.21;99207.22;1633410;87;21114;-75
2022/07/06 06:20:51;;;;;;;5.22;3.12;;;;;;;31.06;82.25;99204.23;1642730;86;20980;-73
2022/07/06 06:23:20;;;;;;;5.15;3.67;;;;;;;31.08;81.51;99201.06;1638021;86;21015;-71
2022/07/06 06:25:47;;;;;;;5.97;3.15;;;;;;;31.13;79.69;99198.25;1631260;87;21071;-73
2022/07/06 06:28:33;;;;;;;4.60;3.05;;;;;;;31.15;80.32;99194.94;1632810;87;21650;-73
2022/07/06 06:31:04;;;;;;;3.92;2.98;;;;;;;31.22;79.99;99200.30;1638692;86;21091;-74
2022/07/06 06:33:37;;;;;;;9.20;3.22;;;;;;;31.27;77.80;99197.48;1639442;86;21622;-75
2022/07/06 06:36:17;;;;;;;5.58;3.27;;;;;;;31.18;78.17;99203.32;1634522;87;20991;-74
2022/07/06 06:38:45;;;;;;;4.47;3.20;;;;;;;31.22;76.67;99193.19;1634811;87;21045;-74
2022/07/06 06:41:41;;;;;;;7.78;3.12;;;;;;;31.24;77.04;99184.21;1635934;86;20986;-73
2022/07/06 06:44:09;;;;;;;5.47;3.05;;;;;;;31.26;77.24;99185.30;1639190;86;21012;-73
2022/07/06 06:46:39;;;;;;;7.80;3.52;;;;;;;31.33;77.48;99189.89;1609849;87;20885;-75
2022/07/06 06:49:08;;;;;;;11.57;3.52;;;;;;;31.38;77.29;99184.20;1637151;86;21469;-73
2022/07/06 06:51:37;;;;;;;10.00;3.80;;;;;;;31.43;78.09;99180.13;1637332;86;21096;-75
2022/07/06 06:54:21;;;;;;;8.48;3.58;;;;;;;31.49;77.05;99183.77;1632352;87;21092;-74
2022/07/06 06:56:49;;;;;;;8.40;2.98;;;;;;;31.51;76.13;99176.33;1637061;87;21080;-74
2022/07/06 06:59:17;;;;;;;6.67;3.22;;;;;;;31.55;76.81;99171.28;1639049;86;21047;-74
2022/07/06 07:01:58;;;;;;;6.97;3.12;;;;;;;31.62;77.71;99172.22;1639280;86;21040;-73
2022/07/06 07:04:29;;;;;;;6.83;3.58;;;;;;;31.69;77.01;99172.70;1631230;86;21082;-73
2022/07/06 07:06:57;;;;;;;4.20;3.22;;;;;;;31.75;77.98;99171.41;1648703;86;21188;-73
2022/07/06 07:09:25;;;;;;;9.05;3.75;;;;;;;31.81;77.89;99172.99;1633648;86;21447;-74
2022/07/06 07:11:55;;;;;;;2.67;2.47;;;;;;;31.88;75.65;99174.09;1618197;87;21088;-74
2022/07/06 07:14:28;;;;;;;5.28;3.10;;;;;;;31.94;73.06;99177.87;1610995;89;20984;-73
2022/07/06 07:16:57;;;;;;;8.53;3.00;;;;;;;32.03;72.25;99173.45;1611743;89;21039;-72
2022/07/06 07:19:25;;;;;;;6.45;3.30;;;;;;;32.16;71.62;99176.09;1624888;86;21895;-72
2022/07/06 07:21:55;;;;;;;8.23;3.08;;;;;;;32.21;71.63;99176.88;1636257;87;21123;-72
2022/07/06 07:24:27;;;;;;;8.10;3.17;;;;;;;32.29;71.56;99169.59;1629228;87;21060;-72
2022/07/06 07:26:53;;;;;;;5.35;3.40;;;;;;;32.30;74.27;99169.73;1608607;87;21067;-73
2022/07/06 07:29:23;;;;;;;5.37;3.67;;;;;;;32.34;74.20;99161.64;1636550;86;21450;-73
2022/07/06 07:34:34;;;;;;;16.35;3.58;;;;;;;32.47;74.92;99162.84;1630767;88;21012;-72
2022/07/06 07:37:11;;;;;;;7.00;2.90;;;;;;;32.51;74.98;99161.42;1630809;88;21449;-73
2022/07/06 07:39:40;;;;;;;4.47;3.33;;;;;;;32.55;76.55;99166.33;1630115;88;21049;-73
2022/07/06 07:42:10;;;;;;;8.60;3.65;;;;;;;32.58;78.35;99169.48;1630843;88;21461;-73
2022/07/06 07:44:41;;;;;;;4.78;3.08;;;;;;;32.63;79.31;99164.56;1630302;86;21573;-71
2022/07/06 07:47:17;;;;;;;3.95;3.40;;;;;;;32.70;77.58;99169.91;1629426;86;21593;-72
2022/07/06 07:49:50;;;;;;;6.35;3.62;;;;;;;32.76;76.32;99169.39;1606798;88;21132;-71
2022/07/06 07:52:20;;;;;;;3.87;3.35;;;;;;;32.85;75.97;99162.06;1628772;86;21052;-72
2022/07/06 07:54:52;;;;;;;15.38;4.05;;;;;;;32.95;77.89;99160.73;1618705;88;21545;-75
2022/07/06 07:57:25;;;;;;;7.33;3.35;;;;;;;32.89;77.84;99164.88;1629317;88;21254;-72
2022/07/06 08:00:04;;;;;;;4.42;3.27;;;;;;;32.97;76.79;99167.38;1629743;86;21031;-72
2022/07/06 08:02:36;;;;;;;5.33;3.10;;;;;;;33.04;75.64;99162.73;1628487;86;21029;-70
2022/07/06 08:05:04;;;;;;;4.22;3.10;;;;;;;33.08;76.40;99169.03;1629745;88;21017;-71
2022/07/06 08:07:34;;;;;;;3.95;3.30;;;;;;;33.23;74.04;99160.58;1629409;88;21536;-71
2022/07/06 08:10:02;;;;;;;9.15;3.58;;;;;;;33.22;74.95;99171.02;1598875;88;21901;-71
2022/07/06 08:12:36;;;;;;;3.85;3.45;;;;;;;33.37;74.51;99162.53;1629645;88;21063;-70
2022/07/06 08:15:13;;;;;;;4.00;2.80;;;;;;;33.39;73.92;99169.94;1625645;88;20982;-70
2022/07/06 08:17:41;;;;;;;9.48;3.37;;;;;;;33.44;72.46;99162.79;1629405;88;21019;-72
2022/07/06 08:20:16;;;;;;;5.45;3.00;;;;;;;33.44;72.90;99163.56;1625980;88;20917;-72
2022/07/06 08:22:44;;;;;;;10.53;3.33;;;;;;;33.68;73.52;99164.83;1629451;88;21153;-73
2022/07/06 08:25:12;;;;;;;10.10;3.37;;;;;;;33.85;73.00;99152.27;1629659;86;20983;-72
2022/07/06 08:27:41;;;;;;;3.45;2.92;;;;;;;33.98;71.90;99150.55;1629981;88;21034;-71
2022/07/06 08:30:11;;;;;;;6.85;2.98;;;;;;;34.04;72.32;99151.43;1677450;85;20982;-72
2022/07/06 08:32:43;;;;;;;11.73;3.17;;;;;;;33.94;71.63;99154.23;1681434;83;21029;-69
2022/07/06 08:35:12;;;;;;;4.03;2.83;;;;;;;34.30;71.65;99142.27;1682644;85;21125;-71
2022/07/06 08:37:39;;;;;;;5.45;3.12;;;;;;;34.33;69.97;99146.99;1683257;83;21026;-71
2022/07/06 08:40:09;;;;;;;5.25;2.95;;;;;;;34.48;68.49;99147.59;1678707;85;21038;-73
2022/07/06 08:42:36;;;;;;;5.55;3.10;;;;;;;34.58;68.41;99139.04;1683807;85;21614;-70
2022/07/06 08:45:07;;;;;;;7.65;3.27;;;;;;;34.59;66.14;99140.63;1682721;85;21546;-72
2022/07/06 08:47:39;;;;;;;4.00;3.12;;;;;;;34.45;65.32;99145.73;1683984;85;21809;-71
2022/07/06 08:50:11;;;;;;;4.30;3.05;;;;;;;34.53;65.00;99146.89;1685126;83;21390;-72
2022/07/06 08:52:42;;;;;;;4.10;2.92;;;;;;;34.73;65.32;99136.81;1682421;85;21477;-72
2022/07/06 08:55:16;;;;;;;3.50;2.75;;;;;;;34.74;65.53;99139.81;1673693;84;21045;-71
2022/07/06 08:57:47;;;;;;;3.75;2.87;;;;;;;34.79;64.44;99138.30;1683965;85;21038;-70
2022/07/06 09:00:17;;;;;;;6.55;3.30;;;;;;;34.87;60.23;99138.05;1670230;84;20996;-72
2022/07/06 09:02:56;;;;;;;5.78;3.27;;;;;;;34.95;59.60;99135.54;1659166;86;20920;-72
2022/07/06 09:05:23;;;;;;;3.33;3.02;;;;;;;35.00;60.11;99126.88;1630669;88;20938;-73
2022/07/06 09:07:52;;;;;;;12.53;4.17;;;;;;;34.95;60.50;99122.03;1628955;86;21024;-72
2022/07/06 09:10:24;;;;;;;9.20;3.10;;;;;;;35.07;61.19;99118.67;1634882;87;21478;-71
2022/07/06 09:13:08;;;;;;;4.70;3.12;;;;;;;35.13;60.38;99129.39;1621494;86;20993;-71
2022/07/06 09:15:39;;;;;;;6.35;3.75;;;;;;;35.23;60.99;99115.72;1638977;87;22138;-72
2022/07/06 09:18:09;;;;;;;10.05;3.17;;;;;;;35.26;59.65;99116.16;1648498;86;20971;-72
2022/07/06 09:20:40;;;;;;;7.12;3.60;;;;;;;35.33;60.79;99120.02;1651810;87;21519;-72
2022/07/06 09:23:08;;;;;;;8.30;3.40;;;;;;;35.38;59.75;99116.44;1645517;86;21077;-71
2022/07/06 09:25:37;;;;;;;10.95;3.75;;;;;;;35.48;58.94;99110.53;1651668;87;21143;-72
2022/07/06 09:28:08;;;;;;;8.98;3.52;;;;;;;35.55;59.08;99102.94;1649987;85;21482;-71
2022/07/06 09:30:39;;;;;;;5.40;3.20;;;;;;;35.64;56.27;99109.91;1636390;85;21123;-70
2022/07/06 09:33:10;;;;;;;7.33;3.42;;;;;;;35.67;55.85;99100.97;1637822;85;21034;-69
2022/07/06 09:35:41;;;;;;;9.68;4.35;;;;;;;35.73;54.30;99101.00;1620899;88;20984;-70
2022/07/06 09:38:16;;;;;;;5.70;3.45;;;;;;;35.71;54.88;99092.92;1616234;87;21322;-71
2022/07/06 09:41:04;;;;;;;4.83;3.37;;;;;;;35.78;56.05;99093.14;1646674;86;21163;-75
2022/07/06 09:43:36;;;;;;;9.13;3.55;;;;;;;35.85;54.52;99094.12;1623360;87;21131;-70
2022/07/06 09:46:04;;;;;;;14.47;4.20;;;;;;;35.86;54.60;99092.81;1622180;87;21129;-69
2022/07/06 09:48:34;;;;;;;5.25;4.22;;;;;;;35.96;54.14;99096.94;1632824;86;21092;-69
2022/07/06 09:51:09;;;;;;;9.65;4.45;;;;;;;35.96;52.58;99098.38;1617456;87;21160;-69
2022/07/06 09:53:36;;;;;;;9.33;4.62;;;;;;;35.96;51.10;99086.28;1625632;88;21006;-70
2022/07/06 09:56:04;;;;;;;7.47;4.12;;;;;;;35.86;53.01;99091.38;1612226;87;21125;-68
2022/07/06 09:58:31;;;;;;;5.65;4.15;;;;;;;35.86;51.44;99087.09;1602932;89;20980;-68
2022/07/06 10:01:03;;;;;;;4.95;3.67;;;;;;;35.85;52.54;99085.53;1624177;87;20962;-68
2022/07/06 10:03:33;;;;;;;;;;;;;;;35.95;50.19;99076.09;1628470;87;21452;-70
2022/07/06 10:06:01;;;;;;;9.65;5.50;;;;;;;36.04;51.49;99075.12;1625884;88;20553;-70
2022/07/06 10:08:30;;;;;;;12.70;4.08;;;;;;;36.15;51.11;99088.09;1623854;88;21047;-70
2022/07/06 10:11:13;;;;;;;5.95;3.83;;;;;;;36.23;50.41;99077.59;1624842;86;20989;-70
2022/07/06 10:13:40;;;;;;;8.65;5.28;;;;;;;36.33;49.89;99076.13;1625195;88;21505;-70
2022/07/06 10:16:11;;;;;;;11.63;4.30;;;;;;;36.40;49.96;99072.80;1627271;88;21227;-69
2022/07/06 10:18:42;;;;;;;7.50;4.83;;;;;;;36.49;48.89;99066.05;1627350;88;21545;-72
2022/07/06 10:21:13;;;;;;;10.03;3.92;;;;;;;36.60;50.70;99069.63;1627584;88;20934;-71
2022/07/06 10:23:45;;;;;;;5.00;3.92;;;;;;;36.68;50.96;99059.11;1627363;86;21198;-70
2022/07/06 10:26:19;;;;;;;12.25;4.55;;;;;;;36.78;50.14;99058.38;1627116;88;21068;-71
2022/07/06 10:28:50;;;;;;;11.12;5.12;;;;;;;36.91;50.30;99062.87;1627149;88;20961;-70
2022/07/06 10:31:18;;;;;;;8.83;4.97;;;;;;;37.05;47.59;99064.61;1626614;88;21009;-70
2022/07/06 10:33:51;;;;;;;8.00;4.80;;;;;;;37.13;46.63;99051.33;1628554;88;21068;-72
2022/07/06 10:36:18;;;;;;;5.97;4.27;;;;;;;37.18;47.54;99055.50;1629019;86;21493;-70
2022/07/06 10:38:49;;;;;;;7.87;4.22;;;;;;;37.23;47.95;99044.69;1632099;86;21020;-71
2022/07/06 10:41:33;;;;;;;8.70;4.05;;;;;;;37.34;49.82;99051.14;1606472;88;21474;-71
2022/07/06 10:44:16;;;;;;;8.85;4.33;;;;;;;37.47;48.33;99046.31;1627397;86;20930;-71
2022/07/06 10:46:57;;;;;;;10.65;4.62;;;;;;;37.54;46.33;99030.66;1626920;88;21025;-71
2022/07/06 10:49:27;;;;;;;12.23;4.45;;;;;;;37.46;46.20;99039.80;1628160;88;21096;-69
2022/07/06 10:51:56;;;;;;;8.23;4.28;;;;;;;37.34;45.78;99041.88;1621225;87;21525;-71
2022/07/06 10:54:29;;;;;;;6.47;4.05;;;;;;;37.28;45.88;99029.59;1624541;86;21120;-71
2022/07/06 10:57:04;;;;;;;6.62;4.10;;;;;;;37.24;46.06;99027.61;1587745;86;21066;-72
2022/07/06 10:59:35;;;;;;;7.12;4.05;;;;;;;37.18;46.78;99025.36;1620779;86;21529;-72
2022/07/06 11:02:17;;;;;;;11.83;4.90;;;;;;;37.08;47.32;99019.88;1616951;87;21169;-70
2022/07/06 11:04:48;;;;;;;5.90;4.40;;;;;;;36.92;46.48;99012.02;1609569;86;21086;-70
2022/07/06 11:07:26;;;;;;;4.17;3.42;;;;;;;36.95;49.65;99010.34;1646398;85;21022;-71
2022/07/06 11:10:01;;;;;;;8.20;4.20;;;;;;;36.94;48.32;98992.98;1615997;88;21591;-72
2022/07/06 11:12:34;;;;;;;7.00;3.95;;;;;;;37.00;48.31;98993.80;1594304;89;21115;-69
2022/07/06 11:15:03;;;;;;;7.45;4.10;;;;;;;36.95;47.23;98989.47;1565507;88;20989;-70
2022/07/06 11:17:33;;;;;;;7.22;4.20;;;;;;;36.94;47.41;98988.67;1640995;87;21029;-72
2022/07/06 11:20:13;;;;;;;8.88;3.90;;;;;;;37.04;48.81;98982.70;1646217;87;21140;-71
2022/07/06 11:22:41;;;;;;;6.25;3.90;;;;;;;37.12;47.64;98974.48;1640964;85;20995;-71
2022/07/06 11:25:10;;;;;;;5.30;4.17;;;;;;;37.24;48.12;98970.20;1645274;86;21013;-71
2022/07/06 11:27:38;;;;;;;12.65;4.60;;;;;;;37.32;49.09;98981.33;1645627;85;21052;-73
2022/07/06 11:30:13;;;;;;;6.85;4.15;;;;;;;37.45;47.86;98977.16;1655822;85;20922;-69
2022/07/06 11:32:40;;;;;;;8.05;4.20;;;;;;;37.56;46.46;98979.23;1657739;84;21081;-69
2022/07/06 11:35:19;;;;;;;7.62;4.20;;;;;;;37.65;45.14;98975.31;1658187;86;21068;-70
2022/07/06 11:37:49;;;;;;;8.10;4.10;;;;;;;37.73;46.31;98974.91;1662128;84;21040;-72
2022/07/06 11:40:18;;;;;;;13.72;4.53;;;;;;;37.73;46.18;98978.60;1659592;85;21036;-72
2022/07/06 11:42:56;;;;;;;7.92;3.85;;;;;;;37.73;44.92;98975.73;1627833;84;21071;-73
2022/07/06 11:45:27;;;;;;;8.83;4.20;;;;;;;37.63;44.88;98970.09;1690648;84;21451;-73
2022/07/06 11:48:17;;;;;;;5.47;4.10;;;;;;;37.56;44.07;98977.15;1690888;84;20990;-74
2022/07/06 11:50:43;;;;;;;9.65;4.00;;;;;;;37.55;43.96;98959.77;1658741;84;21017;-72
2022/07/06 11:53:10;;;;;;;8.35;4.25;;;;;;;37.56;43.89;98958.48;1678428;84;21074;-73
2022/07/06 11:55:38;;;;;;;8.35;3.85;;;;;;;37.50;43.35;98964.87;1674322;84;21010;-72
2022/07/06 11:58:12;;;;;;;8.53;4.67;;;;;;;37.41;43.21;98953.66;1690882;84;21217;-72
2022/07/06 12:01:06;;;;;;;7.80;4.03;;;;;;;37.31;43.08;98948.84;1648320;86;21067;-70
2022/07/06 12:03:35;;;;;;;5.90;3.98;;;;;;;37.19;45.47;98953.12;1633725;84;20944;-71